createdAt,value
2022-10-17T00:01:09.287Z,73.55
2022-10-17T00:03:41.287Z,74.10
2022-10-17T00:06:13.374Z,74.10
2022-10-17T00:08:44.177Z,74.14
2022-10-17T00:11:19.440Z,73.76
2022-10-17T00:13:53.380Z,73.84
2022-10-17T00:16:26.733Z,73.90
2022-10-17T00:18:57.286Z,74.07
2022-10-17T00:21:28.383Z,74.01
2022-10-17T00:23:58.659Z,73.99
2022-10-17T00:26:29.696Z,74.21
2022-10-17T00:29:02.830Z,74.23
2022-10-17T00:31:32.803Z,74.70
2022-10-17T00:34:02.748Z,74.53
2022-10-17T00:36:32.933Z,74.68
2022-10-17T00:39:03.058Z,74.56
2022-10-17T00:41:35.317Z,74.93
2022-10-17T00:44:10.536Z,74.79
2022-10-17T00:46:42.022Z,74.99
2022-10-17T00:49:14.378Z,74.97
2022-10-17T00:51:47.564Z,74.97
2022-10-17T00:54:20.563Z,74.95
2022-10-17T00:56:51.471Z,75.23
2022-10-17T00:59:25.640Z,75.32
2022-10-17T01:01:59.705Z,75.24
2022-10-17T01:04:29.805Z,75.16
2022-10-17T01:06:59.797Z,75.14
2022-10-17T01:09:30.183Z,75.55
2022-10-17T01:12:07.383Z,75.37
2022-10-17T01:14:49.889Z,75.53
2022-10-17T01:17:28.176Z,75.21
2022-10-17T01:20:26.393Z,75.49
2022-10-17T01:23:08.171Z,75.24
2022-10-17T01:25:52.582Z,75.51
2022-10-17T01:28:46.921Z,75.63
2022-10-17T01:31:23.814Z,75.59
2022-10-17T01:34:05.515Z,75.56
2022-10-17T01:36:42.316Z,75.44
2022-10-17T01:39:19.451Z,75.67
2022-10-17T01:41:55.409Z,75.42
2022-10-17T01:44:32.670Z,75.71
2022-10-17T01:47:09.472Z,75.80
2022-10-17T01:49:42.124Z,76.03
2022-10-17T01:52:16.691Z,75.98
2022-10-17T01:54:51.121Z,76.00
2022-10-17T01:57:28.532Z,75.83
2022-10-17T02:00:00.154Z,75.90
2022-10-17T02:02:35.650Z,75.84
2022-10-17T02:05:07.105Z,76.05
2022-10-17T02:07:37.246Z,76.26
2022-10-17T02:10:18.700Z,75.96
2022-10-17T02:12:59.356Z,75.92
2022-10-17T02:15:48.481Z,76.44
2022-10-17T02:18:31.983Z,76.58
2022-10-17T02:21:06.489Z,76.31
2022-10-17T02:23:43.092Z,76.41
2022-10-17T02:26:20.012Z,76.53
2022-10-17T02:28:59.342Z,76.63
2022-10-17T02:31:34.182Z,76.32
2022-10-17T02:34:09.793Z,76.33
2022-10-17T02:36:45.402Z,76.59
2022-10-17T02:39:16.402Z,76.40
2022-10-17T02:41:48.438Z,76.35
2022-10-17T02:44:19.548Z,76.25
2022-10-17T02:46:56.757Z,76.67
2022-10-17T02:49:33.569Z,76.51
2022-10-17T02:52:09.429Z,76.26
2022-10-17T02:54:44.191Z,76.85
2022-10-17T02:57:19.793Z,76.53
2022-10-17T02:59:50.948Z,76.54
2022-10-17T03:02:21.205Z,76.79
2022-10-17T03:04:53.975Z,76.77
2022-10-17T03:07:23.942Z,76.47
2022-10-17T03:09:53.927Z,76.63
2022-10-17T03:12:23.862Z,76.82
2022-10-17T03:14:53.880Z,77.30
2022-10-17T03:17:23.850Z,77.24
2022-10-17T03:19:56.569Z,76.90
2022-10-17T03:22:26.959Z,77.39
2022-10-17T03:24:57.099Z,77.05
2022-10-17T03:27:27.479Z,77.22
2022-10-17T03:29:57.965Z,77.55
2022-10-17T03:32:28.007Z,77.05
2022-10-17T03:35:00.617Z,77.48
2022-10-17T03:37:31.027Z,77.48
2022-10-17T03:40:01.582Z,77.09
2022-10-17T03:42:31.583Z,77.57
2022-10-17T03:45:01.564Z,77.63
2022-10-17T03:47:32.404Z,77.47
2022-10-17T03:50:09.016Z,77.62
2022-10-17T03:52:38.936Z,77.54
2022-10-17T03:55:09.780Z,77.83
2022-10-17T03:57:42.144Z,77.39
2022-10-17T04:00:16.323Z,78.15
2022-10-17T04:02:46.412Z,77.92
2022-10-17T04:05:21.324Z,77.76
2022-10-17T04:07:51.352Z,77.57
2022-10-17T04:10:21.855Z,77.53
2022-10-17T04:12:51.879Z,77.90
2022-10-17T04:15:21.934Z,78.01
2022-10-17T04:17:52.047Z,77.91
2022-10-17T04:20:24.816Z,77.97
2022-10-17T04:22:54.791Z,77.95
2022-10-17T04:25:24.813Z,77.64
2022-10-17T04:27:54.959Z,78.20
2022-10-17T04:30:24.905Z,77.54
2022-10-17T04:32:54.930Z,77.99
2022-10-17T04:35:27.485Z,78.09
2022-10-17T04:37:57.541Z,77.99
2022-10-17T04:40:27.669Z,78.21
2022-10-17T04:42:57.641Z,77.76
2022-10-17T04:45:27.600Z,77.87
2022-10-17T04:47:57.509Z,78.10
2022-10-17T04:50:30.146Z,78.31
2022-10-17T04:53:00.103Z,78.04
2022-10-17T04:55:30.237Z,78.04
2022-10-17T04:58:00.706Z,78.34
2022-10-17T05:00:30.808Z,77.99
2022-10-17T05:03:00.829Z,78.28
2022-10-17T05:05:33.718Z,77.93
2022-10-17T05:08:03.768Z,78.04
2022-10-17T05:10:33.919Z,78.35
2022-10-17T05:13:03.830Z,77.92
2022-10-17T05:15:33.872Z,78.22
2022-10-17T05:18:03.898Z,77.96
2022-10-17T05:20:36.637Z,77.96
2022-10-17T05:23:06.690Z,77.79
2022-10-17T05:25:36.616Z,78.10
2022-10-17T05:28:06.638Z,78.33
2022-10-17T05:30:37.828Z,77.79
2022-10-17T05:33:07.799Z,78.17
2022-10-17T05:35:40.362Z,77.68
2022-10-17T05:38:10.408Z,78.10
2022-10-17T05:40:41.277Z,77.99
2022-10-17T05:43:11.258Z,77.46
2022-10-17T05:45:41.312Z,77.76
2022-10-17T05:48:12.030Z,77.92
2022-10-17T05:50:44.710Z,77.68
2022-10-17T05:53:15.059Z,77.50
2022-10-17T05:55:45.053Z,76.40
2022-10-17T05:58:22.288Z,75.60
2022-10-17T06:01:01.312Z,73.87
2022-10-17T06:03:31.734Z,72.72
2022-10-17T06:06:10.697Z,71.83
2022-10-17T06:08:41.089Z,69.93
2022-10-17T06:11:11.431Z,68.42
2022-10-17T06:13:41.979Z,66.82
2022-10-17T06:16:12.043Z,65.51
2022-10-17T06:18:42.358Z,64.23
2022-10-17T06:21:17.970Z,63.76
2022-10-17T06:23:47.963Z,62.54
2022-10-17T06:26:18.012Z,61.50
2022-10-17T06:28:48.885Z,60.62
2022-10-17T06:31:20.568Z,59.41
2022-10-17T06:33:50.580Z,59.62
2022-10-17T06:36:23.159Z,59.36
2022-10-17T06:38:53.165Z,58.87
2022-10-17T06:41:23.190Z,57.74
2022-10-17T06:43:54.026Z,56.14
2022-10-17T06:46:26.804Z,56.01
2022-10-17T06:48:56.929Z,54.79
2022-10-17T06:51:29.508Z,53.92
2022-10-17T06:54:00.961Z,53.31
2022-10-17T06:56:30.945Z,53.05
2022-10-17T06:59:01.005Z,52.35
2022-10-17T07:01:30.994Z,52.36
2022-10-17T07:04:00.962Z,51.54
2022-10-17T07:06:34.044Z,50.64
2022-10-17T07:09:06.810Z,49.48
2022-10-17T07:11:37.803Z,49.19
2022-10-17T07:14:07.786Z,50.22
2022-10-17T07:16:38.121Z,49.66
2022-10-17T07:19:08.289Z,48.49
2022-10-17T07:21:40.894Z,48.21
2022-10-17T07:24:11.000Z,47.67
2022-10-17T07:26:41.075Z,47.38
2022-10-17T07:29:12.204Z,47.14
2022-10-17T07:31:42.502Z,46.55
2022-10-17T07:34:12.547Z,46.00
2022-10-17T07:36:45.200Z,45.99
2022-10-17T07:39:15.550Z,45.50
2022-10-17T07:41:45.507Z,45.22
2022-10-17T07:44:15.563Z,45.22
2022-10-17T07:46:45.623Z,45.42
2022-10-17T07:49:15.730Z,45.13
2022-10-17T07:51:48.259Z,43.40
2022-10-17T07:54:18.254Z,43.33
2022-10-17T07:56:50.863Z,44.27
2022-10-17T07:59:21.470Z,43.06
2022-10-17T08:01:51.494Z,41.75
2022-10-17T08:04:21.484Z,41.93
2022-10-17T08:07:05.452Z,41.89
2022-10-17T08:09:44.505Z,40.64
2022-10-17T08:12:15.045Z,41.69
2022-10-17T08:14:45.394Z,40.41
2022-10-17T08:17:15.324Z,40.94
2022-10-17T08:19:48.760Z,41.92
2022-10-17T08:22:34.247Z,41.37
2022-10-17T08:25:04.233Z,41.54
2022-10-17T08:27:35.827Z,41.34
2022-10-17T08:30:09.697Z,40.46
2022-10-17T08:32:39.449Z,40.10
2022-10-17T08:35:10.275Z,40.78
2022-10-17T08:37:42.962Z,40.26
2022-10-17T08:40:20.291Z,39.44
2022-10-17T08:43:22.466Z,39.29
2022-10-17T08:45:56.176Z,39.92
2022-10-17T08:48:28.624Z,39.74
2022-10-17T08:51:03.109Z,40.01
2022-10-17T08:53:40.542Z,37.89
2022-10-17T08:56:19.740Z,38.93
2022-10-17T08:58:55.296Z,39.35
2022-10-17T09:01:37.753Z,41.01
2022-10-17T09:04:50.057Z,42.51
2022-10-17T09:07:25.556Z,41.66
2022-10-17T09:10:07.337Z,41.83
2022-10-17T09:12:46.807Z,41.12
2022-10-17T09:15:43.631Z,40.63
2022-10-17T09:18:22.099Z,40.35
2022-10-17T09:20:58.078Z,40.21
2022-10-17T09:23:31.134Z,40.71
2022-10-17T09:26:04.492Z,40.39
2022-10-17T09:28:37.117Z,40.42
2022-10-17T09:31:10.245Z,39.93
2022-10-17T09:33:53.735Z,39.01
2022-10-17T09:36:27.704Z,39.40
2022-10-17T09:39:00.843Z,38.90
2022-10-17T09:41:46.898Z,37.56
2022-10-17T09:44:22.104Z,37.79
2022-10-17T09:47:11.822Z,38.40
2022-10-17T09:49:43.880Z,38.24
2022-10-17T09:52:17.809Z,37.54
2022-10-17T09:54:50.726Z,37.53
2022-10-17T09:57:25.627Z,37.59
2022-10-17T10:00:01.764Z,37.57
2022-10-17T10:02:39.997Z,36.42
2022-10-17T10:05:20.174Z,37.72
2022-10-17T10:08:08.702Z,37.70
2022-10-17T10:10:38.797Z,37.30
2022-10-17T10:13:20.635Z,35.28
2022-10-17T10:15:52.659Z,35.27
2022-10-17T10:18:40.547Z,37.37
2022-10-17T10:21:13.688Z,35.68
2022-10-17T10:23:45.389Z,35.96
2022-10-17T10:26:24.448Z,37.04
2022-10-17T10:29:01.807Z,36.80
2022-10-17T10:31:35.402Z,37.06
2022-10-17T10:34:21.599Z,37.44
2022-10-17T10:36:59.411Z,35.67
2022-10-17T10:39:35.933Z,35.01
2022-10-17T10:42:09.311Z,34.23
2022-10-17T10:44:42.650Z,35.13
2022-10-17T10:47:26.322Z,34.44
2022-10-17T10:50:20.295Z,35.11
2022-10-17T10:52:57.391Z,35.11
2022-10-17T10:55:32.637Z,35.31
2022-10-17T10:58:09.767Z,35.39
2022-10-17T11:00:42.887Z,35.10
2022-10-17T11:03:19.207Z,33.77
2022-10-17T11:05:54.347Z,34.95
2022-10-17T11:08:32.029Z,36.18
2022-10-17T11:11:13.820Z,34.50
2022-10-17T11:13:49.640Z,34.10
2022-10-17T11:16:38.526Z,34.62
2022-10-17T11:19:16.420Z,34.10
2022-10-17T11:21:52.960Z,35.12
2022-10-17T11:24:27.610Z,34.60
2022-10-17T11:27:03.281Z,33.90
2022-10-17T11:29:36.854Z,33.78
2022-10-17T11:32:14.618Z,34.78
2022-10-17T11:34:48.462Z,35.00
2022-10-17T11:37:24.166Z,35.47
2022-10-17T11:39:59.177Z,35.51
2022-10-17T11:42:33.165Z,34.63
2022-10-17T11:45:07.814Z,35.11
2022-10-17T11:47:48.780Z,34.15
2022-10-17T11:53:21.625Z,34.12
2022-10-17T11:55:53.606Z,34.16
2022-10-17T11:58:35.982Z,34.99
2022-10-17T12:01:18.173Z,35.16
2022-10-17T12:04:04.033Z,34.86
2022-10-17T12:06:47.776Z,35.17
2022-10-17T12:09:24.365Z,34.62
2022-10-17T12:11:58.171Z,34.31
2022-10-17T12:14:43.092Z,34.70
2022-10-17T12:17:29.117Z,33.99
2022-10-17T12:20:31.024Z,35.25
2022-10-17T12:23:23.223Z,34.77
2022-10-17T12:25:58.279Z,33.94
2022-10-17T12:28:34.873Z,35.03
2022-10-17T12:31:08.821Z,34.69
2022-10-17T12:33:41.657Z,34.70
2022-10-17T12:36:47.871Z,35.60
2022-10-17T12:39:54.171Z,35.75
2022-10-17T12:42:52.159Z,35.29
2022-10-17T12:45:54.242Z,35.51
2022-10-17T12:48:54.205Z,35.24
2022-10-17T12:51:35.861Z,33.79
2022-10-17T12:54:14.934Z,34.13
2022-10-17T12:56:47.445Z,33.91
2022-10-17T12:59:24.924Z,34.49
2022-10-17T13:01:59.172Z,34.58
2022-10-17T13:04:31.762Z,34.82
2022-10-17T13:07:02.634Z,35.41
2022-10-17T13:09:35.470Z,34.89
2022-10-17T13:12:08.543Z,35.86
2022-10-17T13:14:44.394Z,36.00
2022-10-17T13:17:25.515Z,35.34
2022-10-17T13:19:57.020Z,35.47
2022-10-17T13:22:29.389Z,36.23
2022-10-17T13:25:10.339Z,36.17
2022-10-17T13:27:40.691Z,36.01
2022-10-17T13:30:33.562Z,36.44
2022-10-17T13:33:04.262Z,36.38
2022-10-17T13:38:32.710Z,36.08
2022-10-17T13:41:30.487Z,36.23
2022-10-17T13:43:54.883Z,37.18
2022-10-17T13:46:37.789Z,37.11
2022-10-17T13:49:18.516Z,37.20
2022-10-17T13:51:50.822Z,37.02
2022-10-17T13:54:42.921Z,37.76
2022-10-17T13:57:22.246Z,37.47
2022-10-17T13:59:55.198Z,37.63
2022-10-17T14:02:29.752Z,38.28
2022-10-17T14:05:16.717Z,37.73
2022-10-17T14:10:46.145Z,37.80
2022-10-17T14:13:25.502Z,37.78
2022-10-17T14:15:56.691Z,38.92
2022-10-17T14:18:35.942Z,38.38
2022-10-17T14:24:16.958Z,38.36
2022-10-17T14:26:50.846Z,39.68
2022-10-17T14:29:27.195Z,40.39
2022-10-17T14:32:06.525Z,40.98
2022-10-17T14:34:41.673Z,40.48
2022-10-17T14:37:13.361Z,40.57
2022-10-17T14:39:43.995Z,40.92
2022-10-17T14:42:21.817Z,41.69
2022-10-17T14:44:53.760Z,41.76
2022-10-17T14:47:42.669Z,41.46
2022-10-17T14:50:28.483Z,41.92
2022-10-17T14:53:03.609Z,42.60
2022-10-17T14:55:35.095Z,42.81
2022-10-17T14:58:18.178Z,43.27
2022-10-17T15:00:48.293Z,44.24
2022-10-17T15:03:19.429Z,44.16
2022-10-17T15:05:56.213Z,44.58
2022-10-17T15:08:27.270Z,44.93
2022-10-17T15:10:57.385Z,45.16
2022-10-17T15:13:29.056Z,46.28
2022-10-17T15:16:01.003Z,47.02
2022-10-17T15:18:30.922Z,46.79
2022-10-17T15:21:05.273Z,47.54
2022-10-17T15:23:47.728Z,48.33
2022-10-17T15:26:20.751Z,48.99
2022-10-17T15:28:52.375Z,49.28
2022-10-17T15:31:24.701Z,50.05
2022-10-17T15:33:55.256Z,50.70
2022-10-17T15:36:29.987Z,50.91
2022-10-17T15:39:01.577Z,50.97
2022-10-17T15:41:33.101Z,52.04
2022-10-17T15:44:03.130Z,52.21
2022-10-17T15:46:35.876Z,51.96
2022-10-17T15:49:07.701Z,52.80
2022-10-17T15:51:40.315Z,52.87
2022-10-17T15:54:10.342Z,53.25
2022-10-17T15:56:45.636Z,54.20
2022-10-17T15:59:18.492Z,55.09
2022-10-17T16:01:48.809Z,56.13
2022-10-17T16:04:19.076Z,56.19
2022-10-17T16:06:51.665Z,56.79
2022-10-17T16:09:21.745Z,57.65
2022-10-17T16:11:51.712Z,57.86
2022-10-17T16:14:21.947Z,58.40
2022-10-17T16:16:51.987Z,59.27
2022-10-17T16:19:22.893Z,59.57
2022-10-17T16:21:59.591Z,59.79
2022-10-17T16:24:32.132Z,59.88
2022-10-17T16:27:02.191Z,60.53
2022-10-17T16:29:32.710Z,60.73
2022-10-17T16:32:02.761Z,61.18
2022-10-17T16:34:32.721Z,61.11
2022-10-17T16:37:05.335Z,61.01
2022-10-17T16:39:35.378Z,61.20
2022-10-17T16:42:10.545Z,61.69
2022-10-17T16:44:40.499Z,61.99
2022-10-17T16:47:11.564Z,62.34
2022-10-17T16:49:44.448Z,61.96
2022-10-17T16:52:18.324Z,62.67
2022-10-17T16:54:48.417Z,62.59
2022-10-17T16:57:19.318Z,62.65
2022-10-17T16:59:49.705Z,62.83
2022-10-17T17:02:21.295Z,63.44
2022-10-17T17:04:55.075Z,63.53
2022-10-17T17:07:29.508Z,63.73
2022-10-17T17:09:59.998Z,63.39
2022-10-17T17:12:29.950Z,63.39
2022-10-17T17:14:59.987Z,63.03
2022-10-17T17:17:49.286Z,63.14
2022-10-17T17:20:23.039Z,62.90
2022-10-17T17:22:55.737Z,63.41
2022-10-17T17:25:25.927Z,63.71
2022-10-17T17:27:56.166Z,63.78
2022-10-17T17:30:26.266Z,64.11
2022-10-17T17:32:56.264Z,64.18
2022-10-17T17:35:26.265Z,63.69
2022-10-17T17:37:59.080Z,64.29
2022-10-17T17:40:29.089Z,63.61
2022-10-17T17:45:49.035Z,63.34
2022-10-17T17:48:19.238Z,63.71
2022-10-17T17:50:49.486Z,63.24
2022-10-17T17:53:22.242Z,63.53
2022-10-17T17:56:03.865Z,63.33
2022-10-17T17:58:37.909Z,63.53
2022-10-17T18:01:14.313Z,63.61
2022-10-17T18:03:45.206Z,63.52
2022-10-17T18:06:15.458Z,63.05
2022-10-17T18:08:50.605Z,63.46
2022-10-17T18:11:22.079Z,63.26
2022-10-17T18:13:56.791Z,63.83
2022-10-17T18:16:27.752Z,63.54
2022-10-17T18:18:59.510Z,64.11
2022-10-17T18:21:32.687Z,63.87
2022-10-17T18:24:06.546Z,64.01
2022-10-17T18:26:36.990Z,64.06
2022-10-17T18:29:07.369Z,64.14
2022-10-17T18:31:38.180Z,64.39
2022-10-17T18:34:08.787Z,64.47
2022-10-17T18:36:39.229Z,64.32
2022-10-17T18:39:12.129Z,64.29
2022-10-17T18:41:42.223Z,64.43
2022-10-17T18:44:12.824Z,64.30
2022-10-17T18:46:43.186Z,64.43
2022-10-17T18:49:15.348Z,65.00
2022-10-17T18:51:45.844Z,64.86
2022-10-17T18:54:20.687Z,65.07
2022-10-17T18:56:54.536Z,65.04
2022-10-17T18:59:24.953Z,64.55
2022-10-17T19:01:55.282Z,65.15
2022-10-17T19:04:25.596Z,65.01
2022-10-17T19:06:55.608Z,65.46
2022-10-17T19:09:28.222Z,65.26
2022-10-17T19:11:58.203Z,65.50
2022-10-17T19:14:28.818Z,65.57
2022-10-17T19:16:59.754Z,64.94
2022-10-17T19:19:29.885Z,65.39
2022-10-17T19:22:00.617Z,65.57
2022-10-17T19:24:33.265Z,65.46
2022-10-17T19:27:04.245Z,65.64
2022-10-17T19:29:34.609Z,65.97
2022-10-17T19:32:14.093Z,65.82
2022-10-17T19:34:46.942Z,65.81
2022-10-17T19:37:16.964Z,65.69
2022-10-17T19:39:53.999Z,65.73
2022-10-17T19:42:24.065Z,65.92
2022-10-17T19:44:54.058Z,66.19
2022-10-17T19:47:24.261Z,66.06
2022-10-17T19:49:54.457Z,66.44
2022-10-17T19:52:24.577Z,66.41
2022-10-17T19:54:57.141Z,66.63
2022-10-17T19:57:27.320Z,66.89
2022-10-17T19:59:57.959Z,66.56
2022-10-17T20:02:28.171Z,67.08
2022-10-17T20:05:13.810Z,66.99
2022-10-17T20:07:47.981Z,67.11
2022-10-17T20:10:22.495Z,67.26
2022-10-17T20:12:52.490Z,67.17
2022-10-17T20:15:22.407Z,67.18
2022-10-17T20:17:54.962Z,67.72
2022-10-17T20:20:25.199Z,67.79
2022-10-17T20:22:55.255Z,67.85
2022-10-17T20:25:27.908Z,68.06
2022-10-17T20:27:58.466Z,68.45
2022-10-17T20:30:28.511Z,68.24
2022-10-17T20:32:58.666Z,68.69
2022-10-17T20:35:28.733Z,69.24
2022-10-17T20:37:58.741Z,69.31
2022-10-17T20:40:35.535Z,69.51
2022-10-17T20:43:07.190Z,69.85
2022-10-17T20:45:50.573Z,69.38
2022-10-17T20:48:25.204Z,69.44
2022-10-17T20:50:56.085Z,69.74
2022-10-17T20:53:36.936Z,69.98
2022-10-17T20:56:12.444Z,69.89
2022-10-17T20:58:42.480Z,69.73
2022-10-17T21:01:13.847Z,69.91
2022-10-17T21:03:46.482Z,69.88
2022-10-17T21:06:17.460Z,70.15
2022-10-17T21:08:47.920Z,70.11
2022-10-17T21:11:24.763Z,70.19
2022-10-17T21:13:58.396Z,70.07
2022-10-17T21:16:29.810Z,70.29
2022-10-17T21:19:00.844Z,70.30
2022-10-17T21:21:33.929Z,70.42
2022-10-17T21:24:05.530Z,70.21
2022-10-17T21:26:39.709Z,70.55
2022-10-17T21:29:10.453Z,70.65
2022-10-17T21:31:45.077Z,70.57
2022-10-17T21:34:17.645Z,70.91
2022-10-17T21:36:47.701Z,71.00
2022-10-17T21:39:18.914Z,71.39
2022-10-17T21:41:51.540Z,70.83
2022-10-17T21:44:23.873Z,71.25
2022-10-17T21:46:54.735Z,71.44
2022-10-17T21:49:26.907Z,71.18
2022-10-17T21:51:56.929Z,71.13
2022-10-17T21:54:26.959Z,71.12
2022-10-17T21:56:59.608Z,71.07
2022-10-17T21:59:31.663Z,71.02
2022-10-17T22:02:01.628Z,71.38
2022-10-17T22:04:34.260Z,70.99
2022-10-17T22:07:04.229Z,71.09
2022-10-17T22:09:35.017Z,71.00
2022-10-17T22:12:07.801Z,71.09
2022-10-17T22:14:37.792Z,71.06
2022-10-17T22:17:07.774Z,70.61
2022-10-17T22:19:40.968Z,71.13
2022-10-17T22:22:10.965Z,71.01
2022-10-17T22:24:41.027Z,70.75
2022-10-17T22:27:13.619Z,71.10
2022-10-17T22:29:43.723Z,71.05
2022-10-17T22:32:16.336Z,70.93
2022-10-17T22:34:48.632Z,71.32
2022-10-17T22:37:18.682Z,71.03
2022-10-17T22:39:51.119Z,71.18
2022-10-17T22:42:23.704Z,71.46
2022-10-17T22:44:53.633Z,71.52
2022-10-17T22:47:23.605Z,71.48
2022-10-17T22:49:53.645Z,71.33
2022-10-17T22:52:23.610Z,71.48
2022-10-17T22:54:53.617Z,71.25
2022-10-17T22:57:26.298Z,71.72
2022-10-17T22:59:56.625Z,71.92
2022-10-17T23:02:26.596Z,72.00
2022-10-17T23:04:56.580Z,71.44
2022-10-17T23:07:26.679Z,72.01
2022-10-17T23:09:57.516Z,72.26
2022-10-17T23:12:30.375Z,71.99
2022-10-17T23:15:00.637Z,71.77
2022-10-17T23:17:30.683Z,72.39
2022-10-17T23:20:00.797Z,72.36
2022-10-17T23:22:31.114Z,72.29
2022-10-17T23:25:01.326Z,72.00
2022-10-17T23:27:33.930Z,72.59
2022-10-17T23:30:06.251Z,72.29
2022-10-17T23:32:36.512Z,72.42
2022-10-17T23:35:06.580Z,72.74
2022-10-17T23:37:36.779Z,72.32
2022-10-17T23:40:07.917Z,72.67
2022-10-17T23:42:40.584Z,72.37
2022-10-17T23:45:12.034Z,72.76
2022-10-17T23:47:42.312Z,72.90
2022-10-17T23:50:13.687Z,72.39
2022-10-17T23:52:43.834Z,72.68
2022-10-17T23:55:14.078Z,73.00
2022-10-17T23:57:46.726Z,72.72
